Time,TemperatureF,DewpointF,PressureIn,WindDirection,WindDirectionDegrees,WindSpeedMPH,WindSpeedGustMPH,Humidity,HourlyPrecipIn,Conditions,Clouds,dailyrainin,SoftwareType,DateUTC
2013-03-03 00:00:00,40.1,32.5,30.15,East,90,3.0,7.0,74,0.00,CLR,CLR,0.00,WeatherDisplay:10.37,2013-03-03 00:00:00,
2013-03-03 00:10:00,40.6,33.0,30.15,East,90,5.0,8.0,74,0.00,CLR,CLR,0.00,WeatherDisplay:10.37,2013-03-03 00:10:00,
2013-03-03 00:20:00,40.6,33.0,30.14,East,90,3.0,6.0,74,0.00,CLR,CLR,0.00,WeatherDisplay:10.37,2013-03-03 00:20:00,
2013-03-03 00:30:00,40.6,33.0,30.14,East,90,5.0,6.0,74,0.00,CLR,CLR,0.00,WeatherDisplay:10.37,2013-03-03 00:30:00,
2013-03-03 00:40:00,40.6,33.0,30.14,East,90,2.0,7.0,74,0.00,CLR,CLR,0.00,WeatherDisplay:10.37,2013-03-03 00:40:00,
2013-03-03 00:50:00,40.5,32.8,30.14,East,90,6.0,8.0,74,0.00,CLR,CLR,0.00,WeatherDisplay:10.37,2013-03-03 00:50:00,
2013-03-03 01:00:00,40.5,32.8,30.14,East,90,5.0,8.0,74,0.00,CLR,CLR,0.00,WeatherDisplay:10.37,2013-03-03 01:00:00,
2013-03-03 01:10:00,40.5,32.8,30.14,East,90,3.0,7.0,74,0.00,CLR,CLR,0.00,WeatherDisplay:10.37,2013-03-03 01:10:00,
2013-03-03 01:20:00,40.1,32.5,30.14,East,90,3.0,8.0,74,0.00,CLR,CLR,0.00,WeatherDisplay:10.37,2013-03-03 01:20:00,
2013-03-03 01:30:00,40.3,32.6,30.13,East,90,3.0,8.0,74,0.00,CLR,CLR,0.00,WeatherDisplay:10.37,2013-03-03 01:30:00,
2013-03-03 01:40:00,40.3,32.6,30.13,East,90,0.0,5.0,74,0.00,CLR,CLR,0.00,WeatherDisplay:10.37,2013-03-03 01:40:00,
2013-03-03 01:50:00,40.3,32.6,30.12,East,90,3.0,6.0,74,0.00,CLR,CLR,0.00,WeatherDisplay:10.37,2013-03-03 01:50:00,
2013-03-03 02:00:00,40.3,32.7,30.12,East,90,2.0,6.0,74,0.00,CLR,CLR,0.00,WeatherDisplay:10.37,2013-03-03 02:00:00,
2013-03-03 02:10:00,40.3,32.3,30.11,East,90,3.0,6.0,73,0.00,CLR,CLR,0.00,WeatherDisplay:10.37,2013-03-03 02:10:00,
2013-03-03 02:20:00,40.3,32.3,30.11,East,90,3.0,6.0,73,0.00,CLR,CLR,0.00,WeatherDisplay:10.37,2013-03-03 02:20:00,
2013-03-03 02:30:00,40.1,32.1,30.11,East,90,3.0,6.0,73,0.00,CLR,CLR,0.00,WeatherDisplay:10.37,2013-03-03 02:30:00,
2013-03-03 02:40:00,40.5,32.1,30.11,East,90,2.0,6.0,72,0.00,CLR,CLR,0.00,WeatherDisplay:10.37,2013-03-03 02:40:00,
2013-03-03 02:50:00,40.5,32.2,30.10,East,90,2.0,6.0,72,0.00,CLR,CLR,0.00,WeatherDisplay:10.37,2013-03-03 02:50:00,
2013-03-03 03:00:00,40.1,32.5,30.10,East,90,3.0,6.0,74,0.00,CLR,CLR,0.00,WeatherDisplay:10.37,2013-03-03 03:00:00,
2013-03-03 03:10:00,40.1,32.5,30.10,East,90,1.0,6.0,74,0.00,CLR,CLR,0.00,WeatherDisplay:10.37,2013-03-03 03:10:00,
2013-03-03 03:20:00,39.6,32.0,30.10,East,90,5.0,8.0,74,0.00,CLR,CLR,0.00,WeatherDisplay:10.37,2013-03-03 03:20:00,
2013-03-03 03:30:00,39.2,31.9,30.09,East,90,5.0,7.0,75,0.00,CLR,CLR,0.00,WeatherDisplay:10.37,2013-03-03 03:30:00,
2013-03-03 03:40:00,39.0,32.4,30.09,East,90,5.0,8.0,77,0.00,CLR,CLR,0.00,WeatherDisplay:10.37,2013-03-03 03:40:00,
2013-03-03 03:50:00,39.0,32.4,30.09,East,90,5.0,7.0,77,0.00,CLR,CLR,0.00,WeatherDisplay:10.37,2013-03-03 03:50:00,
2013-03-03 04:00:00,38.8,32.2,30.08,East,90,5.0,8.0,77,0.00,CLR,CLR,0.00,WeatherDisplay:10.37,2013-03-03 04:00:00,
2013-03-03 04:10:00,39.0,32.4,30.08,East,90,5.0,7.0,77,0.00,CLR,CLR,0.00,WeatherDisplay:10.37,2013-03-03 04:10:00,
2013-03-03 04:20:00,39.2,32.3,30.08,East,90,3.0,8.0,76,0.00,CLR,CLR,0.00,WeatherDisplay:10.37,2013-03-03 04:20:00,
2013-03-03 04:30:00,39.0,32.4,30.08,East,90,3.0,6.0,77,0.00,CLR,CLR,0.00,WeatherDisplay:10.37,2013-03-03 04:30:00,
2013-03-03 04:40:00,39.7,32.7,30.07,East,90,2.0,6.0,76,0.00,CLR,CLR,0.00,WeatherDisplay:10.37,2013-03-03 04:40:00,
2013-03-03 04:50:00,39.4,32.1,30.07,East,90,5.0,8.0,75,0.00,CLR,CLR,0.00,WeatherDisplay:10.37,2013-03-03 04:50:00,
2013-03-03 05:00:00,39.0,32.4,30.07,East,90,5.0,8.0,77,0.00,CLR,CLR,0.00,WeatherDisplay:10.37,2013-03-03 05:00:00,
2013-03-03 05:10:00,39.0,32.4,30.07,East,90,5.0,8.0,77,0.00,CLR,CLR,0.00,WeatherDisplay:10.37,2013-03-03 05:10:00,
2013-03-03 05:20:00,38.8,32.2,30.07,East,90,6.0,8.0,77,0.00,CLR,CLR,0.00,WeatherDisplay:10.37,2013-03-03 05:20:00,
2013-03-03 05:30:00,38.8,32.2,30.07,East,90,3.0,8.0,77,0.00,CLR,CLR,0.00,WeatherDisplay:10.37,2013-03-03 05:30:00,
2013-03-03 05:40:00,38.7,32.4,30.07,East,90,5.0,8.0,78,0.00,CLR,CLR,0.00,WeatherDisplay:10.37,2013-03-03 05:40:00,
2013-03-03 05:50:00,38.8,32.6,30.07,East,90,7.0,9.0,78,0.00,CLR,CLR,0.00,WeatherDisplay:10.37,2013-03-03 05:50:00,
2013-03-03 06:00:00,39.0,32.4,30.06,East,90,3.0,8.0,77,0.00,CLR,CLR,0.00,WeatherDisplay:10.37,2013-03-03 06:00:00,
2013-03-03 06:10:00,38.8,32.6,30.06,East,90,3.0,7.0,78,0.00,CLR,CLR,0.00,WeatherDisplay:10.37,2013-03-03 06:10:00,
2013-03-03 06:20:00,38.5,32.5,30.06,East,90,2.0,6.0,79,0.00,CLR,CLR,0.00,WeatherDisplay:10.37,2013-03-03 06:20:00,
2013-03-03 06:30:00,38.3,32.4,30.06,East,90,3.0,6.0,79,0.00,CLR,CLR,0.00,WeatherDisplay:10.37,2013-03-03 06:30:00,
2013-03-03 06:40:00,38.4,32.8,30.06,East,90,5.0,6.0,80,0.00,CLR,CLR,0.00,WeatherDisplay:10.37,2013-03-03 06:40:00,
2013-03-03 06:50:00,38.3,33.0,30.06,East,90,3.0,6.0,81,0.00,CLR,CLR,0.00,WeatherDisplay:10.37,2013-03-03 06:50:00,
2013-03-03 07:00:00,38.3,33.0,30.06,East,90,3.0,6.0,81,0.00,CLR,CLR,0.00,WeatherDisplay:10.37,2013-03-03 07:00:00,
2013-03-03 07:10:00,38.8,33.5,30.06,East,90,2.0,5.0,81,0.00,CLR,CLR,0.00,WeatherDisplay:10.37,2013-03-03 07:10:00,
2013-03-03 07:20:00,38.5,33.2,30.06,East,90,2.0,3.0,81,0.00,CLR,CLR,0.00,WeatherDisplay:10.37,2013-03-03 07:20:00,
2013-03-03 07:30:00,38.3,33.0,30.06,East,90,3.0,5.0,81,0.00,CLR,CLR,0.00,WeatherDisplay:10.37,2013-03-03 07:30:00,
2013-03-03 07:40:00,38.3,33.0,30.06,East,90,3.0,5.0,81,0.00,CLR,CLR,0.00,WeatherDisplay:10.37,2013-03-03 07:40:00,
2013-03-03 07:50:00,38.3,33.0,30.06,East,90,0.0,6.0,81,0.00,CLR,CLR,0.00,WeatherDisplay:10.37,2013-03-03 07:50:00,
2013-03-03 08:00:00,38.7,33.4,30.06,East,90,0.0,4.0,81,0.00,CLR,CLR,0.00,WeatherDisplay:10.37,2013-03-03 08:00:00,
2013-03-03 08:10:00,38.7,32.7,30.06,East,90,2.0,5.0,79,0.00,CLR,CLR,0.00,WeatherDisplay:10.37,2013-03-03 08:10:00,
2013-03-03 08:20:00,39.2,32.9,30.06,East,90,2.0,5.0,78,0.00,CLR,CLR,0.00,WeatherDisplay:10.37,2013-03-03 08:20:00,
2013-03-03 08:30:00,39.4,33.1,30.06,East,90,1.0,3.0,78,0.00,CLR,CLR,0.00,WeatherDisplay:10.37,2013-03-03 08:30:00,
2013-03-03 08:40:00,39.9,33.3,30.05,East,90,2.0,4.0,77,0.00,CLR,CLR,0.00,WeatherDisplay:10.37,2013-03-03 08:40:00,
2013-03-03 08:50:00,40.5,33.5,30.05,East,90,2.0,5.0,76,0.00,CLR,CLR,0.00,WeatherDisplay:10.37,2013-03-03 08:50:00,
2013-03-03 09:00:00,40.8,33.9,30.05,East,90,3.0,5.0,76,0.00,CLR,CLR,0.00,WeatherDisplay:10.37,2013-03-03 09:00:00,
2013-03-03 09:10:00,41.2,33.9,30.05,East,90,3.0,6.0,75,0.00,CLR,CLR,0.00,WeatherDisplay:10.37,2013-03-03 09:10:00,
2013-03-03 09:20:00,41.7,34.4,30.05,East,90,2.0,6.0,75,0.00,CLR,CLR,0.00,WeatherDisplay:10.37,2013-03-03 09:20:00,
2013-03-03 09:30:00,42.1,34.4,30.05,East,90,1.0,3.0,74,0.00,CLR,CLR,0.00,WeatherDisplay:10.37,2013-03-03 09:30:00,
2013-03-03 09:40:00,42.3,34.3,30.05,East,90,1.0,3.0,73,0.00,CLR,CLR,0.00,WeatherDisplay:10.37,2013-03-03 09:40:00,
2013-03-03 09:50:00,43.0,34.2,30.05,East,90,1.0,4.0,71,0.00,CLR,CLR,0.00,WeatherDisplay:10.37,2013-03-03 09:50:00,
2013-03-03 10:00:00,44.2,34.0,30.05,East,90,2.0,5.0,67,0.00,CLR,CLR,0.00,WeatherDisplay:10.37,2013-03-03 10:00:00,
2013-03-03 10:10:00,45.6,34.1,30.04,East,90,6.0,7.0,64,0.00,CLR,CLR,0.00,WeatherDisplay:10.37,2013-03-03 10:10:00,
2013-03-03 10:20:00,43.7,33.5,30.04,East,90,9.0,12.0,67,0.00,CLR,CLR,0.00,WeatherDisplay:10.37,2013-03-03 10:20:00,
2013-03-03 10:30:00,42.8,33.7,30.04,East,90,9.0,15.0,70,0.00,CLR,CLR,0.00,WeatherDisplay:10.37,2013-03-03 10:30:00,
2013-03-03 10:40:00,42.5,34.1,30.04,East,90,15.0,17.0,72,0.00,CLR,CLR,0.00,WeatherDisplay:10.37,2013-03-03 10:40:00,
2013-03-03 10:50:00,42.6,34.2,30.03,East,90,10.0,17.0,72,0.00,CLR,CLR,0.00,WeatherDisplay:10.37,2013-03-03 10:50:00,
2013-03-03 11:00:00,42.8,33.7,30.03,East,90,9.0,15.0,70,0.00,CLR,CLR,0.00,WeatherDisplay:10.37,2013-03-03 11:00:00,
2013-03-03 11:10:00,43.0,33.1,30.03,East,90,14.0,17.0,68,0.00,CLR,CLR,0.00,WeatherDisplay:10.37,2013-03-03 11:10:00,
2013-03-03 11:20:00,42.8,32.6,30.02,East,90,12.0,20.0,67,0.00,CLR,CLR,0.00,WeatherDisplay:10.37,2013-03-03 11:20:00,
2013-03-03 11:30:00,43.1,32.5,30.02,East,90,12.0,15.0,66,0.00,CLR,CLR,0.00,WeatherDisplay:10.37,2013-03-03 11:30:00,
2013-03-03 11:40:00,43.2,32.2,30.02,East,90,12.0,15.0,65,0.00,CLR,CLR,0.00,WeatherDisplay:10.37,2013-03-03 11:40:00,
2013-03-03 11:50:00,43.2,32.2,30.02,East,90,9.0,15.0,65,0.00,CLR,CLR,0.00,WeatherDisplay:10.37,2013-03-03 11:50:00,
2013-03-03 12:00:00,43.2,31.8,30.01,East,90,9.0,15.0,64,0.00,CLR,CLR,0.00,WeatherDisplay:10.37,2013-03-03 12:00:00,
2013-03-03 12:10:00,43.2,31.8,30.01,East,90,8.0,18.0,64,0.00,CLR,CLR,0.00,WeatherDisplay:10.37,2013-03-03 12:10:00,
2013-03-03 12:20:00,43.3,32.0,30.00,East,90,10.0,15.0,64,0.00,CLR,CLR,0.00,WeatherDisplay:10.37,2013-03-03 12:20:00,
2013-03-03 12:30:00,43.3,32.0,30.00,East,88,12.0,16.0,64,0.00,CLR,CLR,0.00,WeatherDisplay:10.37,2013-03-03 12:30:00,
2013-03-03 12:40:00,43.7,32.3,30.00,East,90,10.0,16.0,64,0.00,CLR,CLR,0.00,WeatherDisplay:10.37,2013-03-03 12:40:00,
2013-03-03 12:50:00,44.1,32.7,29.99,East,90,8.0,20.0,64,0.00,CLR,CLR,0.00,WeatherDisplay:10.37,2013-03-03 12:50:00,
2013-03-03 13:00:00,45.2,32.9,29.99,East,90,8.0,16.0,62,0.00,CLR,CLR,0.00,WeatherDisplay:10.37,2013-03-03 13:00:00,
2013-03-03 13:10:00,45.4,32.7,29.98,East,90,10.0,17.0,61,0.00,CLR,CLR,0.00,WeatherDisplay:10.37,2013-03-03 13:10:00,
2013-03-03 13:20:00,45.3,32.2,29.98,East,90,14.0,20.0,60,0.00,CLR,CLR,0.00,WeatherDisplay:10.37,2013-03-03 13:20:00,
2013-03-03 13:30:00,45.0,32.3,29.97,East,90,10.0,17.0,61,0.00,CLR,CLR,0.00,WeatherDisplay:10.37,2013-03-03 13:30:00,
2013-03-03 13:40:00,46.3,33.6,29.97,East,90,14.0,17.0,61,0.00,CLR,CLR,0.00,WeatherDisplay:10.37,2013-03-03 13:40:00,
2013-03-03 13:50:00,45.7,32.2,29.96,East,90,15.0,20.0,59,0.00,CLR,CLR,0.00,WeatherDisplay:10.37,2013-03-03 13:50:00,
2013-03-03 14:00:00,45.5,32.8,29.96,East,90,10.0,20.0,61,0.00,CLR,CLR,0.00,WeatherDisplay:10.37,2013-03-03 14:00:00,
2013-03-03 14:10:00,46.2,33.0,29.96,East,90,13.0,21.0,60,0.00,CLR,CLR,0.00,WeatherDisplay:10.37,2013-03-03 14:10:00,
2013-03-03 14:20:00,46.8,33.2,29.95,East,90,12.0,17.0,59,0.00,CLR,CLR,0.00,WeatherDisplay:10.37,2013-03-03 14:20:00,
2013-03-03 14:30:00,46.2,32.7,29.95,East,90,12.0,16.0,59,0.00,CLR,CLR,0.00,WeatherDisplay:10.37,2013-03-03 14:30:00,
2013-03-03 14:40:00,46.7,33.1,29.94,East,90,12.0,15.0,59,0.00,CLR,CLR,0.00,WeatherDisplay:10.37,2013-03-03 14:40:00,
2013-03-03 14:50:00,46.9,33.4,29.94,East,90,16.0,20.0,59,0.00,CLR,CLR,0.00,WeatherDisplay:10.37,2013-03-03 14:50:00,
2013-03-03 15:00:00,46.8,32.8,29.93,East,90,13.0,21.0,58,0.00,CLR,CLR,0.00,WeatherDisplay:10.37,2013-03-03 15:00:00,
2013-03-03 15:10:00,47.1,33.0,29.93,East,90,9.0,20.0,58,0.00,CLR,CLR,0.00,WeatherDisplay:10.37,2013-03-03 15:10:00,
2013-03-03 15:20:00,47.7,33.2,29.93,East,90,12.0,17.0,57,0.00,CLR,CLR,0.00,WeatherDisplay:10.37,2013-03-03 15:20:00,
2013-03-03 15:30:00,47.0,33.0,29.92,East,90,12.0,16.0,58,0.00,CLR,CLR,0.00,WeatherDisplay:10.37,2013-03-03 15:30:00,
2013-03-03 15:40:00,47.2,33.2,29.92,East,90,8.0,15.0,58,0.00,CLR,CLR,0.00,WeatherDisplay:10.37,2013-03-03 15:40:00,
2013-03-03 15:50:00,46.5,32.5,29.92,East,90,12.0,15.0,58,0.00,CLR,CLR,0.00,WeatherDisplay:10.37,2013-03-03 15:50:00,
2013-03-03 16:00:00,46.4,32.4,29.92,East,90,16.0,21.0,58,0.00,CLR,CLR,0.00,WeatherDisplay:10.37,2013-03-03 16:00:00,
2013-03-03 16:10:00,45.9,32.3,29.92,East,90,13.0,21.0,59,0.00,CLR,CLR,0.00,WeatherDisplay:10.37,2013-03-03 16:10:00,
2013-03-03 16:20:00,45.9,32.3,29.91,East,90,12.0,17.0,59,0.00,CLR,CLR,0.00,WeatherDisplay:10.37,2013-03-03 16:20:00,
2013-03-03 16:30:00,45.5,32.0,29.91,East,90,12.0,17.0,59,0.00,CLR,CLR,0.00,WeatherDisplay:10.37,2013-03-03 16:30:00,
2013-03-03 16:40:00,45.9,33.2,29.91,East,90,12.0,16.0,61,0.00,CLR,CLR,0.00,WeatherDisplay:10.37,2013-03-03 16:40:00,
2013-03-03 16:50:00,46.6,33.0,29.91,East,90,9.0,15.0,59,0.00,CLR,CLR,0.00,WeatherDisplay:10.37,2013-03-03 16:50:00,
2013-03-03 17:00:00,46.2,33.0,29.90,East,90,10.0,17.0,60,0.00,CLR,CLR,0.00,WeatherDisplay:10.37,2013-03-03 17:00:00,
2013-03-03 17:10:00,45.5,32.8,29.90,East,90,8.0,14.0,61,0.00,CLR,CLR,0.00,WeatherDisplay:10.37,2013-03-03 17:10:00,
2013-03-03 17:20:00,45.0,32.7,29.90,East,90,7.0,11.0,62,0.00,CLR,CLR,0.00,WeatherDisplay:10.37,2013-03-03 17:20:00,
2013-03-03 17:30:00,44.6,32.4,29.89,East,90,9.0,12.0,62,0.00,CLR,CLR,0.00,WeatherDisplay:10.37,2013-03-03 17:30:00,
2013-03-03 17:40:00,44.4,33.0,29.90,East,90,7.0,13.0,64,0.00,CLR,CLR,0.00,WeatherDisplay:10.37,2013-03-03 17:40:00,
2013-03-03 17:50:00,44.2,33.2,29.90,East,90,7.0,9.0,65,0.00,CLR,CLR,0.00,WeatherDisplay:10.37,2013-03-03 17:50:00,
2013-03-03 18:00:00,43.9,32.9,29.90,East,90,9.0,13.0,65,0.00,CLR,CLR,0.00,WeatherDisplay:10.37,2013-03-03 18:00:00,
2013-03-03 18:10:00,43.5,32.5,29.90,East,90,13.0,20.0,65,0.00,CLR,CLR,0.00,WeatherDisplay:10.37,2013-03-03 18:10:00,
2013-03-03 18:20:00,43.0,31.6,29.90,East,90,15.0,20.0,64,0.00,CLR,CLR,0.00,WeatherDisplay:10.37,2013-03-03 18:20:00,
2013-03-03 18:30:00,42.4,31.9,29.90,East,90,14.0,17.0,66,0.00,CLR,CLR,0.00,WeatherDisplay:10.37,2013-03-03 18:30:00,
2013-03-03 18:40:00,42.1,31.5,29.90,East,90,15.0,18.0,66,0.00,CLR,CLR,0.00,WeatherDisplay:10.37,2013-03-03 18:40:00,
2013-03-03 18:50:00,41.7,31.2,29.90,East,90,13.0,17.0,66,0.00,CLR,CLR,0.00,WeatherDisplay:10.37,2013-03-03 18:50:00,
2013-03-03 19:00:00,41.2,31.0,29.90,East,90,12.0,16.0,67,0.00,CLR,CLR,0.00,WeatherDisplay:10.37,2013-03-03 19:00:00,
2013-03-03 19:10:00,40.8,31.4,29.90,East,90,10.0,17.0,69,0.00,CLR,CLR,0.00,WeatherDisplay:10.37,2013-03-03 19:10:00,
2013-03-03 19:20:00,40.1,31.1,29.90,East,90,9.0,15.0,70,0.00,CLR,CLR,0.00,WeatherDisplay:10.37,2013-03-03 19:20:00,
2013-03-03 19:30:00,39.2,30.6,29.90,East,90,10.0,13.0,71,0.00,CLR,CLR,0.00,WeatherDisplay:10.37,2013-03-03 19:30:00,
2013-03-03 19:40:00,39.0,30.8,29.90,East,90,10.0,14.0,72,0.00,CLR,CLR,0.00,WeatherDisplay:10.37,2013-03-03 19:40:00,
2013-03-03 19:50:00,38.7,30.4,29.90,East,90,9.0,14.0,72,0.00,CLR,CLR,0.00,WeatherDisplay:10.37,2013-03-03 19:50:00,
2013-03-03 20:00:00,38.3,30.1,29.89,East,90,12.0,15.0,72,0.00,CLR,CLR,0.00,WeatherDisplay:10.37,2013-03-03 20:00:00,
2013-03-03 20:10:00,38.0,30.1,29.89,East,90,9.0,14.0,73,0.00,CLR,CLR,0.00,WeatherDisplay:10.37,2013-03-03 20:10:00,
2013-03-03 20:20:00,37.8,30.2,29.89,East,90,8.0,13.0,74,0.00,CLR,CLR,0.00,WeatherDisplay:10.37,2013-03-03 20:20:00,
2013-03-03 20:30:00,37.5,30.3,29.89,East,90,9.0,13.0,75,0.00,CLR,CLR,0.00,WeatherDisplay:10.37,2013-03-03 20:30:00,
2013-03-03 20:40:00,37.5,30.3,29.89,East,90,10.0,13.0,75,0.00,CLR,CLR,0.00,WeatherDisplay:10.37,2013-03-03 20:40:00,
2013-03-03 20:50:00,37.4,30.2,29.89,East,90,9.0,13.0,75,0.00,CLR,CLR,0.00,WeatherDisplay:10.37,2013-03-03 20:50:00,
2013-03-03 21:00:00,37.4,30.2,29.88,East,90,9.0,14.0,75,0.00,CLR,CLR,0.00,WeatherDisplay:10.37,2013-03-03 21:00:00,
2013-03-03 21:10:00,37.2,28.7,29.89,East,90,9.0,13.0,71,0.00,CLR,CLR,0.00,WeatherDisplay:10.37,2013-03-03 21:10:00,
2013-03-03 21:20:00,36.7,28.2,29.89,East,90,8.0,12.0,71,0.00,CLR,CLR,0.00,WeatherDisplay:10.37,2013-03-03 21:20:00,
2013-03-03 21:30:00,36.3,27.8,29.88,East,90,8.0,10.0,71,0.00,CLR,CLR,0.00,WeatherDisplay:10.37,2013-03-03 21:30:00,
2013-03-03 21:40:00,36.3,28.2,29.88,East,90,9.0,11.0,72,0.00,CLR,CLR,0.00,WeatherDisplay:10.37,2013-03-03 21:40:00,
2013-03-03 21:50:00,36.9,28.7,29.89,East,90,8.0,12.0,72,0.00,CLR,CLR,0.00,WeatherDisplay:10.37,2013-03-03 21:50:00,
2013-03-03 22:00:00,37.2,29.0,29.89,East,90,8.0,12.0,72,0.00,CLR,CLR,0.00,WeatherDisplay:10.37,2013-03-03 22:00:00,
2013-03-03 22:10:00,37.8,30.5,29.88,East,90,10.0,13.0,75,0.00,CLR,CLR,0.00,WeatherDisplay:10.37,2013-03-03 22:10:00,
2013-03-03 22:20:00,38.1,30.9,29.88,East,90,9.0,14.0,75,0.00,CLR,CLR,0.00,WeatherDisplay:10.37,2013-03-03 22:20:00,
2013-03-03 22:30:00,38.3,31.1,29.88,East,90,8.0,15.0,75,0.00,CLR,CLR,0.00,WeatherDisplay:10.37,2013-03-03 22:30:00,
2013-03-03 22:40:00,38.5,30.6,29.88,East,90,9.0,13.0,73,0.00,CLR,CLR,0.00,WeatherDisplay:10.37,2013-03-03 22:40:00,
2013-03-03 22:50:00,38.5,30.2,29.88,East,90,8.0,13.0,72,0.00,CLR,CLR,0.00,WeatherDisplay:10.37,2013-03-03 22:50:00,
2013-03-03 23:00:00,38.7,30.1,29.88,East,90,9.0,13.0,71,0.00,CLR,CLR,0.00,WeatherDisplay:10.37,2013-03-03 23:00:00,
2013-03-03 23:10:00,38.5,30.2,29.88,East,90,7.0,13.0,72,0.00,CLR,CLR,0.00,WeatherDisplay:10.37,2013-03-03 23:10:00,
2013-03-03 23:20:00,38.3,30.4,29.88,East,90,7.0,11.0,73,0.00,CLR,CLR,0.00,WeatherDisplay:10.37,2013-03-03 23:20:00,
2013-03-03 23:30:00,37.9,30.7,29.87,East,90,6.0,8.0,75,0.00,CLR,CLR,0.00,WeatherDisplay:10.37,2013-03-03 23:30:00,
2013-03-03 23:40:00,37.8,30.5,29.87,East,90,3.0,8.0,75,0.00,CLR,CLR,0.00,WeatherDisplay:10.37,2013-03-03 23:40:00,
2013-03-03 23:50:00,37.6,30.4,29.86,East,90,3.0,7.0,75,0.00,CLR,CLR,0.00,WeatherDisplay:10.37,2013-03-03 23:50:00,